메인 페이지
METAR-TAF:

METAR-TAF

공항 :

누메아 라 톤투타 국제공항, 뉴칼레도니아

위도: 22-01S, 경도: 166-13E, 고도: 16m

현재 날씨관측

예보는 16분 전, 15:00시(UTC)에 발표되었습니다.
무풍
온도 15°C
습도 88%
기압 1018 hPa
시정 10km 이상
고도 4800ft 상공 흐림

METAR: NWWW 151500Z AUTO 00000KT 9999 OVC048 15/13 Q1018 TEMPO 3000 MIFG

시각: 02:16 (15:16 UTC)

예보

예보는 4 시간 16분 전, 11:00시(UTC)에 발표되었습니다.
예보 대상 시간: 15일 12시부터 16일 12시까지 (UTC)
여러 방향의 바람 2kt
시정 10km 이상
고도 4000ft 상공 구름 보통
고도 5000ft 상공 구름 많음
확률 40% :
일시적
15일 15시부터 15일 21시까지 (UTC)
시정: 3000m
낮은 안개
전환 중
15일 22시부터 16일 01시까지 (UTC)
12kt
전환 중
16일 06시부터 16일 08시까지 (UTC)
여러 방향의 바람 2kt

TAF: NWWW 151100Z 1512/1612 VRB02KT 9999 SCT040 BKN050 PROB40 TEMPO 1515/1521 3000 MIFG BECMG 1522/1601 19012KT BECMG 1606/1608 VRB02KT

4,000개 이상의 공항 관측 자료 및 예보 (METAR 및 TAF 보고).

지도상에서 검색 가능한 기상관측소가 노란 점과 빨간 점으로 표시되어 있습니다.

기상관측소 명을 보려면 표시 위로 마우스를 이동하세요.

날씨 관측과 예보를 보려면 클릭하세요.

지도 변경 : 확대하려면 엑스 표시가 있는 녹색 버튼, 축소하려면 빼기 표시가 있는 녹색 버튼, 다음 페이지의 지도를 보려면 녹색 화살표를 클릭하세요.


METAR-TAF: